• Join FlightAware (Why Join?)
  • Login
  • US Flag 
03:29AM EDT


 

Airport Tracker/Info


-or-


 

Live Flight TrackerFlight Track Log ✈ N960DL ✈ 28-Apr-2013 ✈ KATL - KHOU

Flight Track Log - Related Links

Times and Time Zones

All times are in EDT time to prevent confusion due to time zone crossing. See the N960DL flight status page for this flight to view local times or setup timezone preferences in your user account.

Time Position Orientation Groundspeed Altitude Reporting Facility
EDT Latitude Longitude Course Direction KTS MPH feet Rate Location/Type
08:34PM 33.6500 -84.3667 246° West 201 231 2,600  Level Atlanta TRACON
08:35PM 33.6833 -84.3000 59° Northeast 253 291 4,300 1,920 Climbing Atlanta TRACON
08:36PM 33.7500 -84.2833 12° North 253 291 6,300 2,160 Climbing Atlanta TRACON
08:37PM 33.8001 -84.4965 270° West  Level FlightAware Approximate
08:37PM 33.8167 -84.3167 337° Northwest 268 308 8,500  Level Atlanta TRACON
08:38PM 33.7699 -84.6220 234° Southwest  Level FlightAware Approximate
08:39PM 33.7024 -84.7316 234° Southwest  Level FlightAware Approximate
08:39PM 33.8100 -84.4889 267° West 259 298 12,700  Level Atlanta Center
08:40PM 33.6397 -84.8444 246° West  Level FlightAware Approximate
08:40PM 33.8056 -84.5989 267° West 288 331 14,600  Level Atlanta Center
08:41PM 33.7508 -84.6808 231° Southwest 293 337 16,500 1,740 Climbing Atlanta Center
08:42PM 33.6939 -84.7628 230° Southwest 306 352 18,100 1,620 Climbing Atlanta Center
08:43PM 33.6411 -84.8597 237° Southwest 334 384 19,800 1,440 Climbing Atlanta Center
08:44PM 33.6028 -84.9667 247° West 354 407 21,000 900 Climbing Atlanta Center
08:45PM 33.5622 -85.0833 247° West 374 430 21,600 600 Climbing Atlanta Center
08:46PM 33.5194 -85.2075 248° West 399 459 22,300 900 Climbing Atlanta Center
08:47PM 33.4931 -85.3514 258° West 423 487 23,400 1,020 Climbing Atlanta Center
08:48PM 33.4747 -85.4783 260° West 435 501 24,400 1,200 Climbing Atlanta Center
08:49PM 33.4522 -85.6197 259° West 440 506 25,900 1,500 Climbing Atlanta Center
08:50PM 33.4294 -85.7614 259° West 440 506 27,400 1,560 Climbing Atlanta Center
08:51PM 33.4044 -85.9075 258° West 433 498 29,100 1,440 Climbing Atlanta Center
08:52PM 33.3856 -86.0417 260° West 419 482 30,300 1,200 Climbing Atlanta Center
08:53PM 33.3647 -86.1606 258° West 424 488 31,500 900 Climbing Atlanta Center
08:54PM 33.3436 -86.2942 259° West 413 475 32,100 240 Climbing Atlanta Center
08:55PM 33.3181 -86.4353 258° West 407 468 32,000 -60 Descending Atlanta Center
08:56PM 33.2989 -86.5564 259° West 402 463 32,000  Level Atlanta Center
08:57PM 33.2797 -86.6803 260° West 402 463 32,000  Level Atlanta Center
08:58PM 33.2581 -86.8086 259° West 407 468 32,000  Level Atlanta Center
08:59PM 33.2319 -86.9394 257° West 407 468 32,000  Level Atlanta Center
09:00PM 33.1767 -87.0667 243° Southwest 397 457 32,000 60 Level Atlanta Center
09:01PM 33.1217 -87.1814 240° Southwest 397 457 32,200 360 Climbing Atlanta Center
09:02PM 33.0686 -87.3008 242° Southwest 397 457 32,800 840 Climbing Atlanta Center
09:03PM 33.0175 -87.4153 242° Southwest 403 464 33,900 600 Climbing Atlanta Center
09:04PM 32.9792 -87.5131 245° Southwest 396 456 34,000  Climbing Atlanta Center
09:06PM 32.8936 -87.6878 240° Southwest 378 435 34,000  Level Memphis Center
09:07PM 32.8439 -87.7956 241° Southwest 378 435 34,000  Level Memphis Center
09:08PM 32.7939 -87.9033 241° Southwest 372 428 34,000  Level Memphis Center
09:09PM 32.7478 -88.0108 243° Southwest 372 428 34,000  Level Memphis Center
09:10PM 32.6997 -88.1133 241° Southwest 367 422 34,000  Level Memphis Center
09:11PM 32.6492 -88.2181 240° Southwest 367 422 34,000  Level Memphis Center
09:12PM 32.6050 -88.3228 243° Southwest 367 422 34,000  Level Memphis Center
09:13PM 32.5567 -88.4250 241° Southwest 362 417 34,000  Level Memphis Center
09:14PM 32.5061 -88.5294 240° Southwest 362 417 34,000  Level Memphis Center
09:15PM 32.4594 -88.6339 242° Southwest 362 417 34,000  Level Memphis Center
09:16PM 32.4086 -88.7356 239° Southwest 362 417 34,000  Level Memphis Center
09:17PM 32.3661 -88.8397 244° Southwest 362 417 34,000  Level Memphis Center
09:18PM 32.3361 -88.9508 252° West 357 411 34,000  Level Memphis Center
09:19PM 32.3061 -89.0619 252° West 357 411 34,000  Level Memphis Center
09:20PM 32.2736 -89.1706 251° West 357 411 34,000  Level Memphis Center
09:21PM 32.2414 -89.2792 251° West 357 411 34,000  Level Memphis Center
09:22PM 32.2108 -89.3900 252° West 352 405 34,000  Level Memphis Center
09:23PM 32.1806 -89.5008 252° West 352 405 34,000  Level Memphis Center
09:24PM 32.1456 -89.6089 249° West 352 405 34,000  Level Memphis Center
09:25PM 32.1150 -89.7219 252° West 352 405 34,000  Level Memphis Center
09:26PM 32.0819 -89.8303 250° West 357 411 34,000  Level Memphis Center
09:27PM 32.0492 -89.9431 251° West 357 411 34,000  Level Memphis Center
09:28PM 32.0161 -90.0511 250° West 357 411 34,000  Level Memphis Center
09:29PM 31.9828 -90.1639 251° West 362 417 34,000  Level Memphis Center
09:30PM 31.9475 -90.2767 250° West 368 423 34,000  Level Memphis Center
09:31PM 31.9119 -90.3867 249° West 368 423 34,000  Level Memphis Center
09:33PM 31.8442 -90.6164 251° West 358 412 34,000  Level Houston Center
09:34PM 31.8097 -90.7267 250° West 360 414 34,000  Level Houston Center
09:35PM 31.7778 -90.8353 251° West 356 410 34,000  Level Houston Center
09:36PM 31.7444 -90.9436 250° West 354 407 34,000  Level Houston Center
09:37PM 31.7111 -91.0511 250° West 353 406 34,000  Level Houston Center
09:38PM 31.6756 -91.1647 250° West 355 409 34,000  Level Houston Center
09:39PM 31.6417 -91.2742 250° West 357 411 34,000  Level Houston Center
09:40PM 31.6103 -91.3858 252° West 360 414 34,000  Level Houston Center
09:41PM 31.5692 -91.5203 250° West 364 419 34,000  Level Houston Center
09:42PM 31.5339 -91.6325 250° West 366 421 34,000  Level Houston Center
09:43PM 31.4964 -91.7425 248° West 364 419 34,000  Level Houston Center
09:44PM 31.4581 -91.8525 248° West 363 418 34,000  Level Houston Center
09:45PM 31.4208 -91.9625 248° West 364 419 34,000  Level Houston Center
09:46PM 31.3792 -92.0769 247° West 359 413 34,000  Level Houston Center
09:47PM 31.3414 -92.1858 248° West 360 414 34,000  Level Houston Center
09:48PM 31.3025 -92.2953 247° West 363 418 34,000  Level Houston Center
09:49PM 31.2633 -92.4036 247° West 363 418 34,000  Level Houston Center
09:50PM 31.2233 -92.5133 247° West 367 422 34,000  Level Houston Center
09:51PM 31.1850 -92.6208 247° West 362 417 34,000  Level Houston Center
09:52PM 31.1469 -92.7306 248° West 363 418 34,000  Level Houston Center
09:53PM 31.1081 -92.8389 247° West 364 419 34,000  Level Houston Center
09:54PM 31.0681 -92.9481 247° West 365 420 34,000  Level Houston Center
09:55PM 31.0286 -93.0567 247° West 365 420 34,000  Level Houston Center
09:56PM 30.9814 -93.1881 247° West 367 422 34,000  Level Houston Center
09:57PM 30.9428 -93.2989 248° West 370 426 34,000  Level Houston Center
09:58PM 30.9033 -93.4097 247° West 372 428 34,000  Level Houston Center
09:59PM 30.8633 -93.5225 248° West 378 435 34,000  Level Houston Center
10:01PM 30.8233 -93.6344 247° West 377 434 34,000  Level Houston Center
10:02PM 30.7831 -93.7467 247° West 378 435 34,000  Level Houston Center
10:03PM 30.7417 -93.8603 247° West 383 441 34,000 -600 Level Houston Center
10:04PM 30.7006 -93.9719 247° West 380 437 32,800 -1,920 Descending Houston Center
10:05PM 30.6594 -94.0850 247° West 382 440 30,100 -3,180 Descending Houston Center
10:06PM 30.6086 -94.2239 247° West 391 450 26,400 -3,240 Descending Houston Center
10:07PM 30.5667 -94.3367 247° West 385 443 23,600 -3,000 Descending Houston Center
10:08PM 30.5242 -94.4514 247° West 388 447 20,300 -2,820 Descending Houston Center
10:09PM 30.4669 -94.5672 240° Southwest 386 444 17,900 -2,220 Descending Houston Center
10:10PM 30.4100 -94.6558 233° Southwest 382 440 15,900 -1,980 Descending Houston Center
10:11PM 30.3508 -94.7472 233° Southwest 361 415 13,900 -1,440 Descending Houston Center
10:12PM 30.2914 -94.8367 232° Southwest 353 406 13,000 -480 Descending Houston Center
10:13PM 30.2311 -94.9297 233° Southwest 359 413 13,000  Level Houston Center
10:14PM 30.1711 -95.0214 233° Southwest 359 413 13,000  Level Houston Center
10:15PM 30.0936 -95.0906 218° Southwest 364 419 13,000 -540 Level Houston Center
10:16PM 29.9839 -95.1389 201° Southwest 354 407 12,000 -960 Descending Houston Center
10:17PM 29.9069 -95.1719 200° South 299 344 11,100 -1,560 Descending Houston Center
10:18PM 29.8322 -95.2053 201° Southwest 291 335 8,900 -2,580 Descending Houston Center
10:19PM 29.8039 -95.3169 254° West 293 337 5,400 -2,640 Descending Houston Center
10:20PM 29.7975 -95.4067 265° West 273 314 3,100 -1,800 Descending Houston Center
10:21PM 29.7625 -95.4375 217° Southwest 262 302 2,100 -600 Descending Houston Center
10:22PM 29.7394 -95.3886 118° Southeast 214 246 2,000 -300 Descending Houston Center
10:23PM 29.7069 -95.3531 136° Southeast 180 207 1,600 -420 Descending Houston Center